Terminal Aerodrome Forecast
Issued by NWS

Home | Current Version | Previous Version | Text Only | Print | Product List | Glossary On
Versions: 1 2 3 4 5 6 7 8 9 10 11 12 13
000
FTUS45 KFGZ 192100 AAA
TAFGCN
TAF AMD
KGCN 192147Z 1922/2018 23009KT P6SM VCSH BKN060
      TEMPO 1922/1923 VRB10G20KT 5SM -TSRA SCT035 BKN050CB
     FM200200 VRB03KT P6SM SCT050=

USA.gov is the U.S. government's official web portal to all federal, state and local government web resources and services.